Time;durP1;ratioP1;P1;durP2;ratioP2;P2;SDS_P1;SDS_P2;PMS_P1;PMS_P2;Temp;Humidity;BMP_temperature;BMP_pressure;BME280_temperature;BME280_humidity;BME280_pressure;Samples;Min_cycle;Max_cycle;Signal;HPM_P1;HPM_P2
2022/05/17 00:02:17;;;;;;;3.45;1.65;;;;;;;;;;5020974;28;20102;-83
2022/05/17 00:04:42;;;;;;;5.20;2.08;;;;;;;;;;5023950;28;20091;-80
2022/05/17 00:07:08;;;;;;;6.13;1.92;;;;;;;;;;5043156;28;20524;-80
2022/05/17 00:09:33;;;;;;;3.97;1.65;;;;;;;;;;5031574;28;20033;-79
2022/05/17 00:11:59;;;;;;;4.43;1.85;;;;;;;;;;5023872;28;20029;-80
2022/05/17 00:14:25;;;;;;;5.80;2.03;;;;;;;;;;5024252;28;20116;-82
2022/05/17 00:16:51;;;;;;;3.85;1.85;;;;;;;;;;5039425;28;20129;-82
2022/05/17 00:19:19;;;;;;;5.32;2.05;;;;;;;;;;5039328;28;20032;-80
2022/05/17 00:21:45;;;;;;;4.35;1.85;;;;;;;;;;5036965;28;20531;-79
2022/05/17 00:24:12;;;;;;;5.70;2.15;;;;;;;;;;5021137;28;20061;-82
2022/05/17 00:26:38;;;;;;;3.25;1.70;;;;;;;;;;5023509;28;20472;-83
2022/05/17 00:29:04;;;;;;;4.10;1.60;;;;;;;;;;5026253;28;20087;-79
2022/05/17 00:31:30;;;;;;;3.47;1.60;;;;;;;;;;5020369;28;20030;-82
2022/05/17 00:33:56;;;;;;;6.22;2.17;;;;;;;;;;5023521;28;20059;-80
2022/05/17 00:36:22;;;;;;;6.07;1.83;;;;;;;;;;5024053;28;20049;-83
2022/05/17 00:38:47;;;;;;;4.22;1.70;;;;;;;;;;5026890;28;20493;-79
2022/05/17 00:41:13;;;;;;;6.55;2.13;;;;;;;;;;5023746;28;20100;-83
2022/05/17 00:46:41;;;;;;;4.47;1.80;;;;;;;;;;5025185;28;20146;-84
2022/05/17 00:49:10;;;;;;;4.20;1.95;;;;;;;;;;5027616;28;20143;-84
2022/05/17 00:51:36;;;;;;;5.07;2.28;;;;;;;;;;5021104;28;20052;-79
2022/05/17 00:54:06;;;;;;;6.38;2.15;;;;;;;;;;5024752;28;20064;-79
2022/05/17 00:56:32;;;;;;;3.95;1.83;;;;;;;;;;5025750;28;20026;-80
2022/05/17 00:59:00;;;;;;;8.02;2.28;;;;;;;;;;5021814;28;20075;-83
2022/05/17 01:01:31;;;;;;;5.03;2.08;;;;;;;;;;5040189;28;20022;-83
2022/05/17 01:04:07;;;;;;;6.25;1.90;;;;;;;;;;5023183;28;20021;-83
2022/05/17 01:06:47;;;;;;;6.20;1.60;;;;;;;;;;5023580;28;20030;-83
2022/05/17 01:09:13;;;;;;;4.88;1.90;;;;;;;;;;5024006;28;20037;-83
2022/05/17 01:11:39;;;;;;;4.28;1.70;;;;;;;;;;5025870;28;20030;-81
2022/05/17 01:16:49;;;;;;;4.57;2.00;;;;;;;;;;5025164;28;20047;-83
2022/05/17 01:19:15;;;;;;;3.50;1.80;;;;;;;;;;5022895;28;20627;-84
2022/05/17 01:21:41;;;;;;;4.80;2.25;;;;;;;;;;5025579;28;20026;-80
2022/05/17 01:24:07;;;;;;;5.15;1.80;;;;;;;;;;5025917;28;20033;-79
2022/05/17 01:26:36;;;;;;;3.55;1.70;;;;;;;;;;5025046;28;20117;-80
2022/05/17 01:29:05;;;;;;;4.72;1.88;;;;;;;;;;5022225;28;20040;-79
2022/05/17 01:31:31;;;;;;;5.78;2.08;;;;;;;;;;5024544;28;20111;-79
2022/05/17 01:33:57;;;;;;;6.35;1.90;;;;;;;;;;5027168;28;20060;-79
2022/05/17 01:36:23;;;;;;;5.43;2.08;;;;;;;;;;5023124;28;20022;-83
2022/05/17 01:38:52;;;;;;;5.97;2.15;;;;;;;;;;5023865;28;20033;-83
2022/05/17 01:41:20;;;;;;;5.88;2.15;;;;;;;;;;5026672;28;20033;-83
2022/05/17 01:43:45;;;;;;;7.80;2.40;;;;;;;;;;5025149;28;20037;-80
2022/05/17 01:46:11;;;;;;;6.05;2.40;;;;;;;;;;5023978;28;20405;-84
2022/05/17 01:48:38;;;;;;;5.10;2.45;;;;;;;;;;5023943;28;20045;-79
2022/05/17 01:51:05;;;;;;;6.25;2.65;;;;;;;;;;5024456;28;20057;-80
2022/05/17 01:53:31;;;;;;;6.13;2.70;;;;;;;;;;5022083;28;20068;-83
2022/05/17 01:55:56;;;;;;;5.35;2.53;;;;;;;;;;5022123;28;20421;-84
2022/05/17 01:58:22;;;;;;;4.32;2.30;;;;;;;;;;5021962;28;20013;-84
2022/05/17 02:00:47;;;;;;;4.05;2.42;;;;;;;;;;5023093;28;20029;-83
2022/05/17 02:03:13;;;;;;;4.93;2.30;;;;;;;;;;5026182;28;20025;-79
2022/05/17 02:05:38;;;;;;;4.35;2.10;;;;;;;;;;5021495;28;20389;-79
2022/05/17 02:08:04;;;;;;;4.93;2.35;;;;;;;;;;5020602;28;20469;-82
2022/05/17 02:10:29;;;;;;;4.75;2.00;;;;;;;;;;5039327;28;20102;-83
2022/05/17 02:12:57;;;;;;;6.13;2.10;;;;;;;;;;5027376;28;20033;-84
2022/05/17 02:15:22;;;;;;;7.18;2.50;;;;;;;;;;5025092;28;20067;-80
2022/05/17 02:17:48;;;;;;;5.15;2.20;;;;;;;;;;5023023;28;20389;-84
2022/05/17 02:20:13;;;;;;;5.03;2.03;;;;;;;;;;5027883;28;20171;-84
2022/05/17 02:22:38;;;;;;;6.50;2.78;;;;;;;;;;5025516;28;20091;-79
2022/05/17 02:25:04;;;;;;;6.15;2.40;;;;;;;;;;5026878;28;20037;-79
2022/05/17 02:27:30;;;;;;;4.72;2.53;;;;;;;;;;5024450;28;20159;-83
2022/05/17 02:29:55;;;;;;;4.38;2.28;;;;;;;;;;5028651;28;20029;-80
2022/05/17 02:32:22;;;;;;;4.88;2.33;;;;;;;;;;5026419;28;20075;-83
2022/05/17 02:34:47;;;;;;;5.55;2.33;;;;;;;;;;5024346;28;20116;-79
2022/05/17 02:37:15;;;;;;;6.28;2.25;;;;;;;;;;5025605;28;20297;-80
2022/05/17 02:39:41;;;;;;;6.90;2.65;;;;;;;;;;5031146;28;20060;-82
2022/05/17 02:42:08;;;;;;;6.25;2.70;;;;;;;;;;5035273;28;20137;-79
2022/05/17 02:44:34;;;;;;;6.28;2.28;;;;;;;;;;5023611;28;20038;-79
2022/05/17 02:46:59;;;;;;;6.60;2.45;;;;;;;;;;5023808;28;20041;-84
2022/05/17 02:49:24;;;;;;;6.03;2.58;;;;;;;;;;5027577;28;20043;-83
2022/05/17 02:51:49;;;;;;;4.57;2.30;;;;;;;;;;5045659;28;20021;-83
2022/05/17 02:54:15;;;;;;;5.55;2.75;;;;;;;;;;5028090;28;20033;-80
2022/05/17 02:56:40;;;;;;;5.50;2.65;;;;;;;;;;5027958;28;20021;-80
2022/05/17 02:59:06;;;;;;;3.78;2.00;;;;;;;;;;5029811;28;20037;-79
2022/05/17 03:01:32;;;;;;;5.50;2.53;;;;;;;;;;5027357;28;20033;-80
2022/05/17 03:03:58;;;;;;;9.77;2.65;;;;;;;;;;5023120;28;20033;-83
2022/05/17 03:06:23;;;;;;;5.00;2.63;;;;;;;;;;5026851;28;20461;-83
2022/05/17 03:08:48;;;;;;;5.82;2.60;;;;;;;;;;5026863;28;20041;-82
2022/05/17 03:11:14;;;;;;;7.32;2.78;;;;;;;;;;5023193;28;20496;-79
2022/05/17 03:13:41;;;;;;;4.75;2.75;;;;;;;;;;5024975;28;20044;-85
2022/05/17 03:16:07;;;;;;;5.97;2.80;;;;;;;;;;5026810;28;20026;-79
2022/05/17 03:18:33;;;;;;;6.50;2.90;;;;;;;;;;5025333;28;20064;-80
2022/05/17 03:20:59;;;;;;;4.53;2.28;;;;;;;;;;5025427;28;20040;-83
2022/05/17 03:23:24;;;;;;;5.20;2.90;;;;;;;;;;5031183;28;20022;-79
2022/05/17 03:25:49;;;;;;;7.05;2.72;;;;;;;;;;5028759;28;20025;-84
2022/05/17 03:28:15;;;;;;;6.70;2.83;;;;;;;;;;5026841;28;20033;-80
2022/05/17 03:30:41;;;;;;;8.52;2.97;;;;;;;;;;5023517;28;20104;-84
2022/05/17 03:33:07;;;;;;;6.70;3.20;;;;;;;;;;5028206;28;20034;-79
2022/05/17 03:35:33;;;;;;;5.93;2.95;;;;;;;;;;5029915;28;20041;-83
2022/05/17 03:37:58;;;;;;;5.70;2.70;;;;;;;;;;5023746;28;20024;-80
2022/05/17 03:40:24;;;;;;;4.43;2.70;;;;;;;;;;5023340;28;20041;-79
2022/05/17 03:42:49;;;;;;;5.32;2.90;;;;;;;;;;5024674;28;20029;-83
2022/05/17 03:45:14;;;;;;;4.45;2.70;;;;;;;;;;5028054;28;20049;-80
2022/05/17 03:47:40;;;;;;;5.72;3.08;;;;;;;;;;5041855;28;20497;-79
2022/05/17 03:50:08;;;;;;;7.50;2.95;;;;;;;;;;5028023;28;20025;-79
2022/05/17 03:52:33;;;;;;;6.60;2.90;;;;;;;;;;5030873;28;20034;-79
2022/05/17 03:55:00;;;;;;;5.93;3.10;;;;;;;;;;5026271;28;20040;-83
2022/05/17 03:57:27;;;;;;;6.72;3.38;;;;;;;;;;5019709;28;20025;-79
2022/05/17 03:59:53;;;;;;;6.47;3.30;;;;;;;;;;5041899;28;20025;-84
2022/05/17 04:02:19;;;;;;;6.97;2.67;;;;;;;;;;5019920;28;20025;-79
2022/05/17 04:04:45;;;;;;;6.53;3.20;;;;;;;;;;5020629;28;20036;-83
2022/05/17 04:07:10;;;;;;;5.95;3.28;;;;;;;;;;5025672;28;20702;-83
2022/05/17 04:09:36;;;;;;;7.22;3.15;;;;;;;;;;5024524;28;20033;-83
2022/05/17 04:12:03;;;;;;;5.50;3.28;;;;;;;;;;5021278;28;20124;-83
2022/05/17 04:14:29;;;;;;;5.30;3.10;;;;;;;;;;5037386;28;20392;-82
2022/05/17 04:16:55;;;;;;;5.07;3.17;;;;;;;;;;5027073;28;20128;-79
2022/05/17 04:19:20;;;;;;;5.75;2.97;;;;;;;;;;5020839;28;20477;-83
2022/05/17 04:21:47;;;;;;;6.25;3.58;;;;;;;;;;5022785;28;20031;-83
2022/05/17 04:24:14;;;;;;;6.75;3.30;;;;;;;;;;5025747;28;20025;-83
2022/05/17 04:26:39;;;;;;;6.63;3.08;;;;;;;;;;5021680;28;20597;-79
2022/05/17 04:29:05;;;;;;;6.28;3.13;;;;;;;;;;5020154;28;20037;-79
2022/05/17 04:31:33;;;;;;;6.28;3.30;;;;;;;;;;5025645;28;20025;-82
2022/05/17 04:33:58;;;;;;;6.65;3.13;;;;;;;;;;5017516;28;20033;-83
2022/05/17 04:36:24;;;;;;;5.13;2.97;;;;;;;;;;5020116;28;20041;-83
2022/05/17 04:38:49;;;;;;;6.25;2.75;;;;;;;;;;5020507;28;20393;-83
2022/05/17 04:41:14;;;;;;;6.90;3.40;;;;;;;;;;5023888;28;20028;-79
2022/05/17 04:43:40;;;;;;;6.15;3.10;;;;;;;;;;5025722;28;20120;-83
2022/05/17 04:46:08;;;;;;;6.68;3.13;;;;;;;;;;5020696;28;20371;-79
2022/05/17 04:48:34;;;;;;;5.43;2.97;;;;;;;;;;5017682;28;20685;-80
2022/05/17 04:50:59;;;;;;;6.82;3.40;;;;;;;;;;5021764;28;20021;-79
2022/05/17 04:53:25;;;;;;;4.80;3.25;;;;;;;;;;5020199;28;20025;-83
2022/05/17 04:55:50;;;;;;;7.57;3.38;;;;;;;;;;5019592;28;20028;-79
2022/05/17 04:58:15;;;;;;;8.48;3.70;;;;;;;;;;5020761;28;20052;-83
2022/05/17 05:00:41;;;;;;;6.80;3.65;;;;;;;;;;5018794;28;20154;-83
2022/05/17 05:03:06;;;;;;;7.72;3.88;;;;;;;;;;5019319;28;20025;-80
2022/05/17 05:05:31;;;;;;;6.72;3.97;;;;;;;;;;5020347;28;20025;-83
2022/05/17 05:07:57;;;;;;;8.88;4.32;;;;;;;;;;5019373;28;20386;-80
2022/05/17 05:10:23;;;;;;;6.68;3.90;;;;;;;;;;5021196;28;20029;-79
2022/05/17 05:12:48;;;;;;;9.23;4.60;;;;;;;;;;5026194;28;20029;-83
2022/05/17 05:15:15;;;;;;;6.72;3.95;;;;;;;;;;5017765;28;20029;-83
2022/05/17 05:17:41;;;;;;;6.35;4.00;;;;;;;;;;5017764;28;20029;-79
2022/05/17 05:20:09;;;;;;;8.10;4.07;;;;;;;;;;5020977;28;20037;-83
2022/05/17 05:22:34;;;;;;;7.82;4.10;;;;;;;;;;5019953;28;20520;-79
2022/05/17 05:25:00;;;;;;;5.70;3.05;;;;;;;;;;5020407;28;20022;-83
2022/05/17 05:27:29;;;;;;;6.55;3.55;;;;;;;;;;5040886;28;20509;-79
2022/05/17 05:29:55;;;;;;;7.75;3.60;;;;;;;;;;5025818;28;20017;-83
2022/05/17 05:32:20;;;;;;;6.57;3.47;;;;;;;;;;5035814;28;20181;-79
2022/05/17 05:34:45;;;;;;;9.30;3.85;;;;;;;;;;5020463;28;20370;-79
2022/05/17 05:37:11;;;;;;;7.00;3.70;;;;;;;;;;5027885;28;20017;-79
2022/05/17 05:39:36;;;;;;;8.93;3.92;;;;;;;;;;5024648;28;20032;-84
2022/05/17 05:42:04;;;;;;;6.20;3.80;;;;;;;;;;5020170;28;20026;-80
2022/05/17 05:44:32;;;;;;;9.38;3.90;;;;;;;;;;5024345;28;20041;-80
2022/05/17 05:46:58;;;;;;;9.25;4.00;;;;;;;;;;5021888;28;20040;-83
2022/05/17 05:49:25;;;;;;;8.13;4.00;;;;;;;;;;5020809;28;20384;-84
2022/05/17 05:51:51;;;;;;;6.70;3.85;;;;;;;;;;5041143;28;20029;-84
2022/05/17 05:54:18;;;;;;;6.82;3.63;;;;;;;;;;5024451;28;20037;-80
2022/05/17 05:56:44;;;;;;;7.40;3.70;;;;;;;;;;5027832;28;20091;-80
2022/05/17 05:59:09;;;;;;;6.05;4.30;;;;;;;;;;5026670;28;20115;-81
2022/05/17 06:01:35;;;;;;;7.47;3.72;;;;;;;;;;5041466;28;20031;-84
2022/05/17 06:04:01;;;;;;;9.35;3.38;;;;;;;;;;5025625;28;20037;-84
2022/05/17 06:06:27;;;;;;;5.90;3.70;;;;;;;;;;5029151;28;20037;-80
2022/05/17 06:08:53;;;;;;;7.18;3.90;;;;;;;;;;5025891;28;20025;-79
2022/05/17 06:11:18;;;;;;;5.53;3.65;;;;;;;;;;5024899;28;20501;-83
2022/05/17 06:13:44;;;;;;;5.68;3.42;;;;;;;;;;5027559;28;20040;-79
2022/05/17 06:16:09;;;;;;;6.53;3.47;;;;;;;;;;5039535;28;20030;-83
2022/05/17 06:18:34;;;;;;;7.72;3.50;;;;;;;;;;5029266;28;20020;-80
2022/05/17 06:21:01;;;;;;;8.32;4.47;;;;;;;;;;5026746;28;20391;-83
2022/05/17 06:23:27;;;;;;;5.82;3.40;;;;;;;;;;5022730;28;20477;-80
2022/05/17 06:25:52;;;;;;;6.18;3.28;;;;;;;;;;5023914;28;20135;-83
2022/05/17 06:28:18;;;;;;;6.30;3.30;;;;;;;;;;5025053;28;20493;-83
2022/05/17 06:30:43;;;;;;;8.73;3.70;;;;;;;;;;5026102;28;20041;-83
2022/05/17 06:33:13;;;;;;;4.70;2.92;;;;;;;;;;5022488;28;20037;-83
2022/05/17 06:35:41;;;;;;;6.55;3.40;;;;;;;;;;5026320;28;20029;-84
2022/05/17 06:38:07;;;;;;;11.02;4.15;;;;;;;;;;5028898;28;20710;-80
2022/05/17 06:40:33;;;;;;;5.55;3.75;;;;;;;;;;5024083;28;20405;-83
2022/05/17 06:42:59;;;;;;;5.40;3.60;;;;;;;;;;5034106;28;20017;-79
2022/05/17 06:45:25;;;;;;;6.18;3.40;;;;;;;;;;5029846;28;20501;-84
2022/05/17 06:47:50;;;;;;;9.73;4.78;;;;;;;;;;5033084;28;20014;-79
2022/05/17 06:50:15;;;;;;;10.23;4.38;;;;;;;;;;5047811;28;20036;-83
2022/05/17 06:52:41;;;;;;;8.40;4.85;;;;;;;;;;5030562;28;20037;-79
2022/05/17 06:55:07;;;;;;;6.97;4.53;;;;;;;;;;5032385;28;20551;-78
2022/05/17 06:57:32;;;;;;;8.07;4.38;;;;;;;;;;5030119;28;20025;-84
2022/05/17 06:59:58;;;;;;;8.88;4.93;;;;;;;;;;5033449;28;20048;-84
2022/05/17 07:02:23;;;;;;;8.18;4.55;;;;;;;;;;5021986;28;20032;-84
2022/05/17 07:04:48;;;;;;;10.60;4.90;;;;;;;;;;5030150;28;20032;-79
2022/05/17 07:07:14;;;;;;;8.63;4.03;;;;;;;;;;5025674;28;20018;-80
2022/05/17 07:09:39;;;;;;;6.80;4.35;;;;;;;;;;5027641;28;20107;-79
2022/05/17 07:14:49;;;;;;;7.38;4.20;;;;;;;;;;5030411;28;20453;-84
2022/05/17 07:17:20;;;;;;;6.82;3.88;;;;;;;;;;5027464;28;20022;-82
2022/05/17 07:19:46;;;;;;;5.35;3.53;;;;;;;;;;5032271;28;20036;-82
2022/05/17 07:22:12;;;;;;;5.47;3.25;;;;;;;;;;5019318;28;20037;-84
2022/05/17 07:24:38;;;;;;;5.00;3.10;;;;;;;;;;5026908;28;20026;-84
2022/05/17 07:27:05;;;;;;;6.60;2.92;;;;;;;;;;5044729;28;20037;-80
2022/05/17 07:29:31;;;;;;;5.65;3.20;;;;;;;;;;5031402;28;20057;-80
2022/05/17 07:31:57;;;;;;;6.78;3.00;;;;;;;;;;5026201;28;20449;-82
2022/05/17 07:34:22;;;;;;;7.32;3.20;;;;;;;;;;5023210;28;20144;-84
2022/05/17 07:36:48;;;;;;;9.20;3.60;;;;;;;;;;5046358;28;20394;-82
2022/05/17 07:39:14;;;;;;;5.47;3.05;;;;;;;;;;5028827;28;20030;-80
2022/05/17 07:41:41;;;;;;;7.18;3.63;;;;;;;;;;5025611;28;20036;-79
2022/05/17 07:44:07;;;;;;;6.50;3.20;;;;;;;;;;5023000;28;20033;-79
2022/05/17 07:46:32;;;;;;;5.57;2.55;;;;;;;;;;5023079;28;20083;-80
2022/05/17 07:48:58;;;;;;;6.32;3.13;;;;;;;;;;5024425;28;20873;-82
2022/05/17 07:51:23;;;;;;;6.45;3.13;;;;;;;;;;5033659;28;20025;-82
2022/05/17 07:53:48;;;;;;;5.10;2.35;;;;;;;;;;5031019;28;20080;-84
2022/05/17 07:56:14;;;;;;;5.38;2.75;;;;;;;;;;5033490;28;20032;-81
2022/05/17 07:58:41;;;;;;;5.35;2.40;;;;;;;;;;5026665;28;20028;-79
2022/05/17 08:01:07;;;;;;;5.53;2.88;;;;;;;;;;5030032;28;20115;-80
2022/05/17 08:03:32;;;;;;;7.53;3.30;;;;;;;;;;5026852;28;20064;-80
2022/05/17 08:05:58;;;;;;;7.03;2.85;;;;;;;;;;5031319;28;20033;-84
2022/05/17 08:08:23;;;;;;;4.88;2.33;;;;;;;;;;5028724;28;20029;-82
2022/05/17 08:10:49;;;;;;;6.22;1.90;;;;;;;;;;5036446;28;20128;-82
2022/05/17 08:13:16;;;;;;;5.65;2.05;;;;;;;;;;5026522;28;20036;-80
2022/05/17 08:15:42;;;;;;;3.88;1.90;;;;;;;;;;5027330;28;20052;-83
2022/05/17 08:18:07;;;;;;;6.25;2.33;;;;;;;;;;5028523;28;20021;-83
2022/05/17 08:20:33;;;;;;;5.25;2.10;;;;;;;;;;5032063;28;20052;-83
2022/05/17 08:22:59;;;;;;;5.20;1.95;;;;;;;;;;5024894;28;20559;-80
2022/05/17 08:28:09;;;;;;;8.25;2.40;;;;;;;;;;5025902;28;20136;-80
2022/05/17 08:30:36;;;;;;;5.50;1.63;;;;;;;;;;5032588;28;20100;-84
2022/05/17 08:33:15;;;;;;;5.50;1.85;;;;;;;;;;5029977;28;20481;-83
2022/05/17 08:35:42;;;;;;;5.00;1.40;;;;;;;;;;5034388;28;20478;-82
2022/05/17 08:38:09;;;;;;;4.47;1.40;;;;;;;;;;5029024;28;20382;-83
2022/05/17 08:40:49;;;;;;;3.90;1.20;;;;;;;;;;5027417;28;20028;-83
2022/05/17 08:43:25;;;;;;;7.32;2.10;;;;;;;;;;5030125;28;20481;-80
2022/05/17 08:46:07;;;;;;;6.82;2.63;;;;;;;;;;5027760;28;20069;-83
2022/05/17 08:48:40;;;;;;;6.75;2.85;;;;;;;;;;5024252;28;20034;-79
2022/05/17 08:51:07;;;;;;;9.90;2.70;;;;;;;;;;5028111;28;20055;-80
2022/05/17 08:53:32;;;;;;;9.68;2.92;;;;;;;;;;5024760;28;20083;-85
2022/05/17 08:55:58;;;;;;;5.55;2.60;;;;;;;;;;5026372;28;20033;-79
2022/05/17 08:58:28;;;;;;;6.28;2.60;;;;;;;;;;5028498;28;20413;-80
2022/05/17 09:01:18;;;;;;;6.70;2.67;;;;;;;;;;5026811;28;20025;-80
2022/05/17 09:04:00;;;;;;;7.30;3.10;;;;;;;;;;5023489;28;20071;-85
2022/05/17 09:06:51;;;;;;;6.40;2.53;;;;;;;;;;5028280;28;20025;-83
2022/05/17 09:09:34;;;;;;;6.57;2.90;;;;;;;;;;5028460;28;20038;-80
2022/05/17 09:12:14;;;;;;;5.50;2.90;;;;;;;;;;5027823;28;20079;-80
2022/05/17 09:14:46;;;;;;;5.88;2.83;;;;;;;;;;5022449;28;20033;-85
2022/05/17 09:17:17;;;;;;;7.25;2.95;;;;;;;;;;5025832;28;20041;-83
2022/05/17 09:19:43;;;;;;;11.75;3.95;;;;;;;;;;5029446;28;20485;-80
2022/05/17 09:22:09;;;;;;;8.45;3.55;;;;;;;;;;5029496;28;20382;-80
2022/05/17 09:24:43;;;;;;;9.18;3.90;;;;;;;;;;5027956;28;20474;-80
2022/05/17 09:27:30;;;;;;;8.20;4.35;;;;;;;;;;5021593;28;20029;-79
2022/05/17 09:30:35;;;;;;;6.80;3.65;;;;;;;;;;5022748;28;20025;-81
2022/05/17 09:33:05;;;;;;;6.35;3.38;;;;;;;;;;4989512;28;20037;-83
2022/05/17 09:35:32;;;;;;;8.60;3.95;;;;;;;;;;5011821;28;20041;-83
2022/05/17 09:37:59;;;;;;;8.05;4.07;;;;;;;;;;5015833;28;20071;-83
2022/05/17 09:40:28;;;;;;;7.50;3.80;;;;;;;;;;5024255;28;20037;-80
2022/05/17 09:42:57;;;;;;;8.88;3.58;;;;;;;;;;5028244;28;20038;-80
2022/05/17 09:46:01;;;;;;;5.68;2.85;;;;;;;;;;5042878;28;20049;-80
2022/05/17 09:54:38;;;;;;;6.22;2.65;;;;;;;;;;5023668;28;20044;-82
2022/05/17 09:57:30;;;;;;;7.70;2.95;;;;;;;;;;5023190;28;20021;-81
2022/05/17 10:00:08;;;;;;;6.88;2.63;;;;;;;;;;5024934;28;20033;-81
2022/05/17 10:02:39;;;;;;;7.40;3.65;;;;;;;;;;5023981;28;20029;-83
2022/05/17 10:05:40;;;;;;;9.25;4.18;;;;;;;;;;5020926;28;20643;-84
2022/05/17 10:08:30;;;;;;;7.53;4.00;;;;;;;;;;5002927;28;20034;-81
2022/05/17 10:11:06;;;;;;;7.70;3.85;;;;;;;;;;5022012;28;20037;-81
2022/05/17 10:13:54;;;;;;;7.07;3.65;;;;;;;;;;5025365;28;20029;-83
2022/05/17 10:16:49;;;;;;;6.65;4.05;;;;;;;;;;5029455;28;20038;-83
2022/05/17 10:19:33;;;;;;;7.30;3.60;;;;;;;;;;5032007;28;20083;-81
2022/05/17 10:22:08;;;;;;;6.38;3.00;;;;;;;;;;5027468;28;20037;-83
2022/05/17 10:24:55;;;;;;;10.90;3.03;;;;;;;;;;5040241;28;20124;-80
2022/05/17 10:27:40;;;;;;;5.07;2.20;;;;;;;;;;5027228;28;20424;-86
2022/05/17 10:30:15;;;;;;;5.47;2.20;;;;;;;;;;5027134;28;20033;-85
2022/05/17 10:33:01;;;;;;;7.85;2.50;;;;;;;;;;5026415;28;20030;-81
2022/05/17 10:35:36;;;;;;;6.25;1.88;;;;;;;;;;5026624;28;20036;-85
2022/05/17 10:38:17;;;;;;;6.70;1.60;;;;;;;;;;5028478;28;20087;-81
2022/05/17 10:40:46;;;;;;;4.10;1.65;;;;;;;;;;5026637;28;20133;-84
2022/05/17 10:43:20;;;;;;;3.05;1.30;;;;;;;;;;5022926;28;20033;-80
2022/05/17 10:45:49;;;;;;;2.92;1.27;;;;;;;;;;5019902;28;20049;-80
2022/05/17 10:48:33;;;;;;;5.15;1.70;;;;;;;;;;5023668;28;20374;-85
2022/05/17 10:51:29;;;;;;;2.53;1.20;;;;;;;;;;5027466;28;20029;-81
2022/05/17 10:54:12;;;;;;;5.22;1.60;;;;;;;;;;5023246;28;20478;-81
2022/05/17 10:56:41;;;;;;;3.50;1.60;;;;;;;;;;5029563;28;20033;-79
2022/05/17 10:59:26;;;;;;;7.05;1.40;;;;;;;;;;5027903;28;20061;-87
2022/05/17 11:01:51;;;;;;;4.20;1.05;;;;;;;;;;5026085;28;20017;-87
2022/05/17 11:04:58;;;;;;;5.57;1.80;;;;;;;;;;5025735;28;20031;-86
2022/05/17 11:07:36;;;;;;;6.18;1.70;;;;;;;;;;5029618;28;20026;-84
2022/05/17 11:10:05;;;;;;;4.72;1.77;;;;;;;;;;5028872;28;20474;-85
2022/05/17 11:12:40;;;;;;;4.18;1.67;;;;;;;;;;5026295;28;20079;-86
2022/05/17 11:15:14;;;;;;;4.15;1.58;;;;;;;;;;5025955;28;20075;-85
2022/05/17 11:17:51;;;;;;;6.03;2.03;;;;;;;;;;5029200;28;20022;-80
2022/05/17 11:20:29;;;;;;;4.70;1.90;;;;;;;;;;5029858;28;20023;-85
2022/05/17 11:23:26;;;;;;;4.82;2.20;;;;;;;;;;5029564;28;20441;-80
2022/05/17 11:26:35;;;;;;;6.53;2.20;;;;;;;;;;5031209;28;20061;-85
2022/05/17 11:29:19;;;;;;;4.82;2.00;;;;;;;;;;5039840;28;20087;-84
2022/05/17 11:32:15;;;;;;;4.53;2.13;;;;;;;;;;5030660;28;20106;-85
2022/05/17 11:34:45;;;;;;;4.60;2.65;;;;;;;;;;5024110;28;20090;-85
2022/05/17 11:37:32;;;;;;;8.13;3.17;;;;;;;;;;5027339;28;20033;-85
2022/05/17 11:40:01;;;;;;;6.40;3.08;;;;;;;;;;5024042;28;20108;-86
2022/05/17 11:42:28;;;;;;;7.65;3.35;;;;;;;;;;5025482;28;20429;-84
2022/05/17 11:44:55;;;;;;;5.40;3.20;;;;;;;;;;5031400;28;20477;-86
2022/05/17 11:47:31;;;;;;;5.82;3.28;;;;;;;;;;5029428;28;20124;-86
2022/05/17 11:50:29;;;;;;;5.22;2.72;;;;;;;;;;5025229;28;20025;-86
2022/05/17 11:53:16;;;;;;;7.40;3.25;;;;;;;;;;5017269;28;20563;-83
2022/05/17 11:56:03;;;;;;;4.88;3.22;;;;;;;;;;5027593;28;20041;-80
2022/05/17 11:58:29;;;;;;;8.13;3.28;;;;;;;;;;5034512;28;20125;-82
2022/05/17 12:00:54;;;;;;;8.07;3.40;;;;;;;;;;5028959;28;20560;-81
2022/05/17 12:03:50;;;;;;;6.60;3.65;;;;;;;;;;5026151;28;20033;-80
2022/05/17 12:06:51;;;;;;;8.63;4.43;;;;;;;;;;5029761;28;20025;-79
2022/05/17 12:09:23;;;;;;;7.78;4.40;;;;;;;;;;5009678;28;20060;-80
2022/05/17 12:12:24;;;;;;;9.15;4.50;;;;;;;;;;5030435;28;20034;-79
2022/05/17 12:15:15;;;;;;;7.07;5.07;;;;;;;;;;5030002;28;20029;-80
2022/05/17 12:17:44;;;;;;;9.38;5.15;;;;;;;;;;5025765;28;20029;-81
2022/05/17 12:20:21;;;;;;;8.70;4.80;;;;;;;;;;5030538;28;20022;-87
2022/05/17 12:23:05;;;;;;;8.73;5.20;;;;;;;;;;5032204;28;20025;-80
2022/05/17 12:25:38;;;;;;;7.82;4.43;;;;;;;;;;5042095;28;20033;-80
2022/05/17 12:28:08;;;;;;;;;;;;;;;;;;5024549;28;20026;-86
2022/05/17 12:33:22;;;;;;;8.07;4.25;;;;;;;;;;5027005;28;20036;-85
2022/05/17 12:35:49;;;;;;;8.32;3.80;;;;;;;;;;5024279;28;20480;-81
2022/05/17 12:44:07;;;;;;;6.57;3.45;;;;;;;;;;5022584;28;20405;-84
2022/05/17 12:46:36;;;;;;;6.25;3.42;;;;;;;;;;5021527;28;20465;-82
2022/05/17 12:49:14;;;;;;;6.63;3.40;;;;;;;;;;5022895;28;20080;-79
2022/05/17 12:51:39;;;;;;;8.35;3.50;;;;;;;;;;5029145;28;20029;-78
2022/05/17 12:54:11;;;;;;;5.78;3.28;;;;;;;;;;5026983;28;20120;-78
2022/05/17 12:56:41;;;;;;;9.00;4.07;;;;;;;;;;5023735;28;20025;-79
2022/05/17 12:59:07;;;;;;;8.55;3.97;;;;;;;;;;5023379;28;20401;-76
2022/05/17 13:01:36;;;;;;;6.80;3.28;;;;;;;;;;5026954;28;20029;-77
2022/05/17 13:04:29;;;;;;;6.63;3.78;;;;;;;;;;5020347;28;20530;-79
2022/05/17 13:07:13;;;;;;;5.65;3.38;;;;;;;;;;5028129;28;20053;-80
2022/05/17 13:10:02;;;;;;;5.47;3.50;;;;;;;;;;5028088;28;20060;-81
2022/05/17 13:12:31;;;;;;;6.32;3.33;;;;;;;;;;5033477;28;20024;-78
2022/05/17 13:14:57;;;;;;;5.95;3.13;;;;;;;;;;5029647;28;20033;-77
2022/05/17 13:17:36;;;;;;;5.90;3.42;;;;;;;;;;5021350;28;20481;-79
2022/05/17 13:20:24;;;;;;;5.63;3.20;;;;;;;;;;5026326;28;20022;-78
2022/05/17 13:22:55;;;;;;;7.03;3.30;;;;;;;;;;5026519;28;20041;-77
2022/05/17 13:25:26;;;;;;;7.85;3.38;;;;;;;;;;5031115;28;20025;-80
2022/05/17 13:27:54;;;;;;;5.93;3.00;;;;;;;;;;5022538;28;20148;-81
2022/05/17 13:30:26;;;;;;;7.78;2.50;;;;;;;;;;5043335;28;20410;-80
2022/05/17 13:32:53;;;;;;;4.90;2.65;;;;;;;;;;5025587;28;20028;-77
2022/05/17 13:35:29;;;;;;;4.43;3.13;;;;;;;;;;5029552;28;20025;-77
2022/05/17 13:38:12;;;;;;;6.38;3.20;;;;;;;;;;5029721;28;20511;-78
2022/05/17 13:40:40;;;;;;;5.05;2.90;;;;;;;;;;5021009;28;20033;-77
2022/05/17 13:43:36;;;;;;;6.63;2.58;;;;;;;;;;5022831;28;20214;-82
2022/05/17 13:46:06;;;;;;;6.57;2.55;;;;;;;;;;5029478;28;20068;-77
2022/05/17 13:48:34;;;;;;;4.57;2.45;;;;;;;;;;5026948;28;20021;-78
2022/05/17 13:51:01;;;;;;;5.15;2.55;;;;;;;;;;5029771;28;20029;-78
2022/05/17 13:53:32;;;;;;;6.55;2.50;;;;;;;;;;5029170;28;20474;-79
2022/05/17 13:55:59;;;;;;;5.10;2.70;;;;;;;;;;5024838;28;20424;-82
2022/05/17 13:58:25;;;;;;;6.78;2.50;;;;;;;;;;5028988;28;20374;-77
2022/05/17 14:01:16;;;;;;;6.13;2.40;;;;;;;;;;5026587;28;20033;-81
2022/05/17 14:03:42;;;;;;;4.53;2.88;;;;;;;;;;5025418;28;20026;-81
2022/05/17 14:06:07;;;;;;;5.22;2.72;;;;;;;;;;5025920;28;20049;-78
2022/05/17 14:14:12;;;;;;;4.47;2.28;;;;;;;;;;5020805;28;20087;-82
2022/05/17 14:16:44;;;;;;;6.40;2.60;;;;;;;;;;5022950;28;20408;-78
2022/05/17 14:19:15;;;;;;;5.47;2.53;;;;;;;;;;5035846;28;20029;-78
2022/05/17 14:21:42;;;;;;;4.53;2.10;;;;;;;;;;5018582;28;20144;-80
2022/05/17 14:24:09;;;;;;;5.38;3.10;;;;;;;;;;5025788;28;20022;-82
2022/05/17 14:26:35;;;;;;;6.43;2.65;;;;;;;;;;5024027;28;20037;-79
2022/05/17 14:29:01;;;;;;;4.93;2.95;;;;;;;;;;5022346;28;20071;-78
2022/05/17 14:31:27;;;;;;;6.03;2.63;;;;;;;;;;5024496;28;20065;-78
2022/05/17 14:33:57;;;;;;;4.78;2.47;;;;;;;;;;5036662;28;20057;-81
2022/05/17 14:36:25;;;;;;;4.95;2.28;;;;;;;;;;5019286;28;20473;-78
2022/05/17 14:38:51;;;;;;;8.55;2.70;;;;;;;;;;5021321;28;20474;-80
2022/05/17 14:41:16;;;;;;;5.57;2.90;;;;;;;;;;5025636;28;20032;-78
2022/05/17 14:43:43;;;;;;;6.45;2.72;;;;;;;;;;5027114;28;20029;-81
2022/05/17 14:46:13;;;;;;;5.43;2.55;;;;;;;;;;5021172;28;20137;-80
2022/05/17 14:48:39;;;;;;;7.55;2.63;;;;;;;;;;5021361;28;20034;-78
2022/05/17 14:51:06;;;;;;;6.80;1.90;;;;;;;;;;5022279;28;20387;-77
2022/05/17 14:53:31;;;;;;;4.47;2.40;;;;;;;;;;5022839;28;20029;-81
2022/05/17 14:55:57;;;;;;;3.95;1.80;;;;;;;;;;5024443;28;20571;-78
2022/05/17 14:58:22;;;;;;;6.18;1.80;;;;;;;;;;5025963;28;20105;-82
2022/05/17 15:00:49;;;;;;;6.43;1.83;;;;;;;;;;5023238;28;20035;-80
2022/05/17 15:03:34;;;;;;;4.60;1.80;;;;;;;;;;5036985;28;20033;-80
2022/05/17 15:05:59;;;;;;;3.50;1.50;;;;;;;;;;5021519;28;20039;-77
2022/05/17 15:08:24;;;;;;;4.57;2.00;;;;;;;;;;5025715;28;20029;-79
2022/05/17 15:10:50;;;;;;;3.90;1.60;;;;;;;;;;5018863;28;20680;-81
2022/05/17 15:13:16;;;;;;;5.43;1.60;;;;;;;;;;5018218;28;20603;-79
2022/05/17 15:15:44;;;;;;;5.82;1.48;;;;;;;;;;5023304;28;20275;-80
2022/05/17 15:18:15;;;;;;;6.00;1.67;;;;;;;;;;5023608;28;20048;-77
2022/05/17 15:20:41;;;;;;;3.90;1.45;;;;;;;;;;5024191;28;20132;-77
2022/05/17 15:23:09;;;;;;;4.55;1.55;;;;;;;;;;5022404;28;20540;-82
2022/05/17 15:25:34;;;;;;;4.43;1.38;;;;;;;;;;5024881;28;20032;-80
2022/05/17 15:28:00;;;;;;;4.53;1.58;;;;;;;;;;5025005;28;20034;-77
2022/05/17 15:30:28;;;;;;;4.22;1.45;;;;;;;;;;5045776;28;20057;-80
2022/05/17 15:32:54;;;;;;;3.63;1.40;;;;;;;;;;5029600;28;20021;-77